Time;durP1;ratioP1;P1;durP2;ratioP2;P2;SDS_P1;SDS_P2;PMS_P1;PMS_P2;Temp;Humidity;BMP_temperature;BMP_pressure;BME280_temperature;BME280_humidity;BME280_pressure;Samples;Min_cycle;Max_cycle;Signal;HPM_P1;HPM_P2
2021/11/02 00:00:22;;;;;;;;;1.75;1.00;;;;;12.11;69.00;99770.53;5062099;28;45304;-62
2021/11/02 00:02:48;;;;;;;;;1.00;1.00;;;;;12.12;69.24;99763.44;5055509;28;45492;-62
2021/11/02 00:05:14;;;;;;;;;1.75;0.50;;;;;12.14;69.38;99769.44;5042056;28;45370;-63
2021/11/02 00:07:40;;;;;;;;;4.00;3.00;;;;;12.16;68.91;99762.22;5041771;28;46357;-64
2021/11/02 00:10:07;;;;;;;;;2.00;1.00;;;;;12.16;68.94;99762.22;5052088;28;45253;-63
2021/11/02 00:12:33;;;;;;;;;2.00;1.00;;;;;12.16;68.86;99760.41;5041887;28;45157;-61
2021/11/02 00:14:58;;;;;;;;;2.25;1.00;;;;;12.14;68.53;99756.22;5055855;28;45617;-62
2021/11/02 00:17:27;;;;;;;;;2.25;1.00;;;;;12.12;68.50;99751.06;5061777;28;45326;-62
2021/11/02 00:19:58;;;;;;;;;1.00;1.00;;;;;12.15;68.99;99755.25;5061826;28;45476;-64
2021/11/02 00:22:26;;;;;;;;;1.50;0.50;;;;;12.15;69.04;99752.63;5043977;28;45774;-64
2021/11/02 00:27:19;;;;;;;;;2.00;0.00;;;;;12.15;68.79;99744.69;5033554;28;46011;-62
2021/11/02 00:29:44;;;;;;;;;1.00;1.00;;;;;12.12;68.78;99745.81;5028703;28;45534;-63
2021/11/02 00:32:10;;;;;;;;;3.00;1.00;;;;;12.09;68.88;99751.34;5041751;28;45249;-64
2021/11/02 00:34:36;;;;;;;;;0.00;0.00;;;;;12.09;69.08;99747.88;5040265;28;45262;-62
2021/11/02 00:37:02;;;;;;;;;2.00;1.00;;;;;12.11;69.09;99748.56;5041744;28;45275;-63
2021/11/02 00:39:28;;;;;;;;;1.25;0.50;;;;;12.11;69.15;99738.00;5041127;28;45254;-63
2021/11/02 00:41:54;;;;;;;;;3.00;1.00;;;;;12.10;69.08;99738.97;5041662;28;45330;-63
2021/11/02 00:44:21;;;;;;;;;1.00;0.00;;;;;12.08;69.07;99738.25;5041335;28;45300;-61
2021/11/02 00:46:47;;;;;;;;;0.75;0.00;;;;;12.08;69.36;99733.81;5041503;28;45313;-62
2021/11/02 00:49:22;;;;;;;;;0.00;0.00;;;;;12.08;69.14;99738.25;5024912;28;45260;-63
2021/11/02 00:51:48;;;;;;;;;0.50;0.25;;;;;12.05;69.03;99731.41;5021501;28;45387;-62
2021/11/02 00:54:15;;;;;;;;;0.75;0.75;;;;;12.01;69.33;99722.94;5020552;28;45599;-62
2021/11/02 00:56:42;;;;;;;;;0.50;0.50;;;;;12.00;69.33;99723.88;5021253;28;45376;-63
2021/11/02 00:59:08;;;;;;;;;1.00;1.00;;;;;11.96;69.47;99722.44;5020821;28;45331;-64
2021/11/02 01:01:34;;;;;;;;;0.00;0.00;;;;;11.96;69.40;99711.91;5021454;28;45398;-63
2021/11/02 01:04:04;;;;;;;;;1.00;0.00;;;;;11.97;69.64;99713.56;5025208;28;45517;-63
2021/11/02 01:06:30;;;;;;;;;0.00;0.00;;;;;11.96;69.53;99713.69;5041257;28;45316;-62
2021/11/02 01:08:55;;;;;;;;;3.00;1.00;;;;;11.97;69.56;99710.94;5040684;28;45495;-63
2021/11/02 01:11:22;;;;;;;;;0.00;0.00;;;;;11.99;69.54;99711.63;5041180;28;45238;-62
2021/11/02 01:13:48;;;;;;;;;0.50;0.00;;;;;11.97;69.47;99716.22;5036060;28;45541;-62
2021/11/02 01:16:13;;;;;;;;;2.50;0.50;;;;;11.94;69.63;99713.84;5020604;28;46088;-62
2021/11/02 01:18:39;;;;;;;;;0.00;0.00;;;;;11.92;69.55;99706.97;5021113;28;45305;-63
2021/11/02 01:21:04;;;;;;;;;0.00;0.00;;;;;11.91;69.68;99713.22;5021386;28;45712;-63
2021/11/02 01:23:32;;;;;;;;;1.00;0.25;;;;;11.91;69.88;99713.22;5020783;28;45633;-63
2021/11/02 01:25:58;;;;;;;;;1.00;0.50;;;;;11.91;69.95;99714.06;5046365;28;46225;-63
2021/11/02 01:28:25;;;;;;;;;0.00;0.00;;;;;11.92;69.80;99710.44;5041761;28;45367;-63
2021/11/02 01:30:50;;;;;;;;;2.50;0.50;;;;;11.94;69.58;99705.91;5040187;28;45308;-63
2021/11/02 01:33:16;;;;;;;;;0.75;0.00;;;;;11.93;69.73;99713.97;5040760;28;45294;-63
2021/11/02 01:35:42;;;;;;;;;0.75;0.00;;;;;11.93;69.85;99711.31;5040611;28;45339;-62
2021/11/02 01:38:08;;;;;;;;;1.75;1.00;;;;;11.91;69.83;99703.50;5040675;28;45388;-63
2021/11/02 01:40:34;;;;;;;;;1.25;1.00;;;;;11.89;69.90;99696.69;5040714;28;45332;-65
2021/11/02 01:43:00;;;;;;;;;1.75;0.00;;;;;11.88;69.86;99706.41;5040751;28;45562;-63
2021/11/02 01:45:28;;;;;;;;;0.50;0.00;;;;;11.86;70.04;99700.41;5040073;28;45404;-64
2021/11/02 01:47:55;;;;;;;;;0.00;0.00;;;;;11.86;69.73;99703.06;5049761;28;45431;-64
2021/11/02 01:50:21;;;;;;;;;0.75;0.25;;;;;11.86;70.13;99695.16;5040685;28;45225;-62
2021/11/02 01:52:46;;;;;;;;;0.50;0.50;;;;;11.86;69.98;99702.22;5039930;28;45305;-63
2021/11/02 01:55:14;;;;;;;;;0.75;0.00;;;;;11.83;70.05;99691.91;5040107;28;46081;-64
2021/11/02 01:57:41;;;;;;;;;2.00;0.25;;;;;11.82;70.15;99700.78;5047101;28;45296;-66
2021/11/02 02:00:10;;;;;;;;;0.00;0.00;;;;;11.81;70.23;99707.84;5060335;28;45528;-65
2021/11/02 02:03:13;;;;;;;;;2.25;0.00;;;;;11.83;70.34;99705.94;5050401;28;45568;-60
2021/11/02 02:06:16;;;;;;;;;0.00;0.00;;;;;11.83;70.22;99705.94;5046157;28;45410;-60
2021/11/02 02:09:03;;;;;;;;;2.25;1.00;;;;;11.84;70.62;99709.41;5038680;28;45368;-60
2021/11/02 02:12:12;;;;;;;;;1.25;1.00;;;;;11.84;70.30;99706.75;5039104;28;45586;-60
2021/11/02 02:14:58;;;;;;;;;2.00;0.50;;;;;11.82;70.13;99709.53;5050875;28;45384;-60
2021/11/02 02:17:36;;;;;;;;;0.25;0.25;;;;;11.77;70.36;99711.69;5059791;28;45458;-61
2021/11/02 02:20:08;;;;;;;;;1.50;1.00;;;;;11.77;70.22;99705.53;5060309;28;45322;-60
2021/11/02 02:22:45;;;;;;;;;0.00;0.00;;;;;11.77;70.52;99701.13;5060448;28;45355;-60
2021/11/02 02:25:51;;;;;;;;;3.25;0.00;;;;;11.75;70.47;99703.88;5060087;28;45510;-60
2021/11/02 02:28:22;;;;;;;;;0.00;0.00;;;;;11.77;70.24;99706.41;5042916;28;46244;-60
2021/11/02 02:31:10;;;;;;;;;2.75;0.75;;;;;11.79;70.51;99714.19;5039909;28;45178;-60
2021/11/02 02:33:41;;;;;;;;;2.25;1.00;;;;;11.80;70.67;99708.81;5047813;28;45378;-60
2021/11/02 02:36:06;;;;;;;;;2.75;1.00;;;;;11.82;70.60;99709.53;5060388;28;45236;-61
2021/11/02 02:38:35;;;;;;;;;2.00;0.00;;;;;11.86;70.53;99712.78;5059998;28;45229;-61
2021/11/02 02:41:03;;;;;;;;;1.00;0.00;;;;;11.88;70.21;99713.47;5062023;28;45509;-60
2021/11/02 02:43:29;;;;;;;;;1.00;0.00;;;;;11.87;70.24;99709.19;5063893;28;45250;-60
2021/11/02 02:45:58;;;;;;;;;1.00;0.25;;;;;11.87;69.83;99702.09;5063515;28;45471;-61
2021/11/02 02:48:24;;;;;;;;;3.75;1.00;;;;;11.82;69.74;99693.69;5054535;28;45561;-60
2021/11/02 02:50:52;;;;;;;;;0.50;0.50;;;;;11.82;69.68;99693.69;5043194;28;45822;-60
2021/11/02 02:53:19;;;;;;;;;0.00;0.00;;;;;11.83;69.92;99692.72;5043533;28;45334;-60
2021/11/02 02:55:47;;;;;;;;;0.00;0.00;;;;;11.83;69.69;99689.25;5043504;28;45282;-61
2021/11/02 02:58:14;;;;;;;;;1.50;0.25;;;;;11.85;69.93;99684.69;5043218;28;45431;-60
2021/11/02 03:00:42;;;;;;;;;3.00;0.75;;;;;11.83;69.97;99679.53;5042956;28;45332;-60
2021/11/02 03:03:11;;;;;;;;;2.00;0.50;;;;;11.84;70.08;99685.66;5052958;28;45390;-60
2021/11/02 03:05:36;;;;;;;;;0.00;0.00;;;;;11.87;69.57;99688.06;5063485;28;45244;-60
2021/11/02 03:08:03;;;;;;;;;0.00;0.00;;;;;11.88;69.76;99681.81;5062970;28;45422;-60
2021/11/02 03:10:29;;;;;;;;;0.50;0.50;;;;;11.88;69.65;99680.00;5063259;28;45312;-60
2021/11/02 03:12:57;;;;;;;;;0.50;0.00;;;;;11.88;69.82;99676.53;5063338;28;45319;-60
2021/11/02 03:15:47;;;;;;;;;0.00;0.00;;;;;11.90;69.54;99678.09;5063115;28;45443;-57
2021/11/02 03:55:06;;;;;;;;;1.00;1.00;;;;;11.75;70.26;99688.03;5042447;28;45304;-59
2021/11/02 03:57:40;;;;;;;;;0.50;0.50;;;;;11.77;70.03;99695.88;5042438;28;45327;-59
2021/11/02 05:55:58;;;;;;;;;2.50;1.00;;;;;11.82;69.79;99716.63;5040780;28;45245;-59
2021/11/02 05:58:32;;;;;;;;;1.00;0.75;;;;;11.79;69.33;99714.19;5040471;28;45347;-59
2021/11/02 06:23:27;;;;;;;;;0.00;0.00;;;;;11.69;69.21;99730.78;5049202;28;45796;-59
2021/11/02 06:28:48;;;;;;;;;2.00;0.00;;;;;11.69;68.87;99730.78;5055153;28;45406;-59
2021/11/02 06:31:19;;;;;;;;;0.00;0.00;;;;;11.67;68.36;99735.31;5043623;28;45254;-59
2021/11/02 06:36:56;;;;;;;;;0.75;0.75;;;;;11.68;67.75;99734.34;5043571;28;45523;-59
2021/11/02 06:40:06;;;;;;;;;2.00;0.50;;;;;11.67;68.37;99745.03;5042669;28;45495;-59
2021/11/02 07:20:56;;;;;;;;;1.00;1.00;;;;;11.39;67.52;99770.13;5055806;28;45340;-59
2021/11/02 08:47:29;;;;;;;;;1.33;0.67;;;;;11.67;66.55;99850.53;5050333;28;45865;-59
2021/11/02 08:49:54;;;;;;;;;1.00;1.00;;;;;11.65;66.38;99850.66;5041306;28;45281;-59
2021/11/02 08:52:21;;;;;;;;;0.00;0.00;;;;;11.62;66.37;99850.09;5041132;28;45416;-59
2021/11/02 08:54:49;;;;;;;;;0.25;0.25;;;;;11.61;66.74;99846.59;5041329;28;45435;-59
2021/11/02 08:57:17;;;;;;;;;1.00;0.00;;;;;11.63;66.90;99842.03;5041044;28;46437;-59
2021/11/02 08:59:44;;;;;;;;;1.00;0.00;;;;;11.69;66.58;99853.91;5040854;28;45505;-59
2021/11/02 09:02:18;;;;;;;;;0.25;0.25;;;;;11.74;66.43;99854.38;5041433;28;45305;-58
2021/11/02 09:04:47;;;;;;;;;0.00;0.00;;;;;11.77;66.24;99863.84;5048250;28;45254;-59
2021/11/02 09:07:20;;;;;;;;;0.00;0.00;;;;;11.80;66.02;99856.59;5041018;28;45243;-59
2021/11/02 09:09:50;;;;;;;;;2.25;1.00;;;;;11.86;66.15;99857.91;5041045;28;45170;-58
2021/11/02 09:12:17;;;;;;;;;0.75;0.00;;;;;11.90;65.73;99851.41;5041234;28;45408;-59
2021/11/02 09:14:45;;;;;;;;;0.50;0.50;;;;;11.89;65.64;99858.50;5041044;28;45322;-59
2021/11/02 09:17:13;;;;;;;;;0.00;0.00;;;;;11.93;65.61;99859.13;5040889;28;46502;-60
2021/11/02 09:19:39;;;;;;;;;0.50;0.00;;;;;11.98;65.69;99854.28;5041114;28;45340;-59
2021/11/02 09:22:08;;;;;;;;;0.50;0.50;;;;;12.08;65.49;99854.38;5041258;28;45273;-59
2021/11/02 09:24:35;;;;;;;;;2.00;0.00;;;;;12.15;65.38;99851.13;5041068;28;45416;-59
2021/11/02 09:27:03;;;;;;;;;0.25;0.25;;;;;12.28;65.41;99861.56;5056954;28;45213;-59
2021/11/02 09:29:29;;;;;;;;;0.00;0.00;;;;;12.29;64.82;99858.81;5045484;28;45364;-59
2021/11/02 09:31:57;;;;;;;;;1.75;0.00;;;;;12.32;64.69;99857.72;5060396;28;45419;-59
2021/11/02 09:34:24;;;;;;;;;0.50;0.50;;;;;12.31;64.37;99863.94;5052361;28;45514;-59
2021/11/02 09:37:05;;;;;;;;;0.00;0.00;;;;;12.30;64.42;99870.19;5043239;28;45423;-59
2021/11/02 09:39:40;;;;;;;;;0.00;0.00;;;;;12.38;64.38;99875.72;5048925;28;45409;-59
2021/11/02 09:42:40;;;;;;;;;0.00;0.00;;;;;12.47;64.13;99874.97;5042331;28;45348;-58
2021/11/02 09:45:35;;;;;;;;;0.00;0.00;;;;;12.58;63.28;99868.81;5053791;28;45239;-59
2021/11/02 09:48:28;;;;;;;;;1.25;0.00;;;;;12.72;63.01;99865.06;5050374;28;46107;-59
2021/11/02 09:51:18;;;;;;;;;1.50;0.00;;;;;12.81;62.99;99866.94;5039949;28;45422;-59
2021/11/02 09:54:04;;;;;;;;;0.00;0.00;;;;;12.87;62.97;99858.47;5040442;28;45299;-59
2021/11/02 09:56:51;;;;;;;;;0.00;0.00;;;;;12.97;62.63;99866.50;5040597;28;45386;-59
2021/11/02 09:59:39;;;;;;;;;2.00;0.00;;;;;13.07;62.55;99870.06;5049666;28;45478;-59
2021/11/02 10:02:08;;;;;;;;;3.00;1.00;;;;;13.09;62.49;99873.41;5060400;28;45178;-58
2021/11/02 10:05:15;;;;;;;;;1.50;0.00;;;;;13.04;61.96;99871.16;5060798;28;45234;-59
2021/11/02 10:07:56;;;;;;;;;1.50;0.00;;;;;13.02;62.11;99878.38;5043527;28;45457;-59
2021/11/02 10:10:26;;;;;;;;;0.00;0.00;;;;;13.03;61.90;99885.34;5060387;28;45482;-59
2021/11/02 10:13:03;;;;;;;;;3.50;1.75;;;;;13.01;61.82;99881.97;5060591;28;45424;-59
2021/11/02 10:15:39;;;;;;;;;0.00;0.00;;;;;12.99;61.93;99881.28;5060502;28;45410;-59
2021/11/02 10:18:39;;;;;;;;;1.50;0.00;;;;;12.98;61.62;99884.03;5060585;28;45176;-58
2021/11/02 10:21:14;;;;;;;;;0.00;0.00;;;;;12.93;61.69;99883.59;5060440;28;46140;-58
2021/11/02 10:24:19;;;;;;;;;0.00;0.00;;;;;12.90;61.17;99892.59;5060360;28;45304;-59
2021/11/02 10:27:22;;;;;;;;;1.00;1.00;;;;;12.92;61.91;99892.47;5060645;28;45442;-59
2021/11/02 10:30:32;;;;;;;;;1.00;1.00;;;;;13.00;61.77;99888.22;5060465;28;45224;-61
2021/11/02 10:33:03;;;;;;;;;0.00;0.00;;;;;13.01;61.33;99895.19;5049090;28;45557;-60
2021/11/02 10:36:01;;;;;;;;;1.00;0.00;;;;;13.02;61.25;99898.69;5048858;28;45510;-60
2021/11/02 10:38:54;;;;;;;;;0.00;0.00;;;;;13.03;61.25;99895.06;5053054;28;45431;-59
2021/11/02 10:41:22;;;;;;;;;1.00;0.00;;;;;13.01;61.55;99894.34;5049083;28;45462;-61
2021/11/02 10:44:05;;;;;;;;;1.00;0.00;;;;;13.02;61.86;99903.97;5049972;28;45404;-60
2021/11/02 10:46:34;;;;;;;;;1.00;0.00;;;;;13.04;61.75;99900.25;5049249;28;45604;-60
2021/11/02 10:49:24;;;;;;;;;0.50;0.50;;;;;13.06;61.53;99900.13;5048405;28;45262;-61
2021/11/02 10:52:01;;;;;;;;;0.00;0.00;;;;;13.06;61.61;99910.69;5034217;28;45341;-59
2021/11/02 10:54:36;;;;;;;;;0.00;0.00;;;;;13.05;61.57;99898.44;5049263;28;45336;-59
2021/11/02 10:57:47;;;;;;;;;2.00;0.00;;;;;13.09;61.38;99902.50;5048598;28;45332;-60
2021/11/02 11:00:14;;;;;;;;;3.00;0.25;;;;;13.21;61.85;99898.88;5010698;28;45395;-62
2021/11/02 11:02:45;;;;;;;;;0.00;0.00;;;;;13.34;61.70;99901.31;5053535;28;45487;-60
2021/11/02 11:05:11;;;;;;;;;0.00;0.00;;;;;13.44;61.40;99888.16;5053246;28;45316;-60
2021/11/02 11:07:45;;;;;;;;;1.00;1.00;;;;;13.53;61.61;99888.22;5054463;28;45232;-60
2021/11/02 11:10:13;;;;;;;;;0.75;0.25;;;;;13.62;61.05;99892.72;5051761;28;45338;-61
2021/11/02 11:12:53;;;;;;;;;1.00;1.00;;;;;13.67;60.96;99892.34;5052037;28;45884;-60
2021/11/02 11:15:20;;;;;;;;;1.00;0.00;;;;;13.69;60.77;99888.59;5050123;28;46050;-59
2021/11/02 11:17:50;;;;;;;;;0.00;0.00;;;;;13.71;61.02;99888.44;5050509;28;45368;-59
2021/11/02 11:20:19;;;;;;;;;0.75;0.75;;;;;13.72;60.80;99881.34;5051334;28;45412;-60
2021/11/02 11:22:49;;;;;;;;;0.00;0.00;;;;;13.69;60.38;99891.22;5052684;28;45477;-61
2021/11/02 11:25:29;;;;;;;;;0.00;0.00;;;;;13.71;60.39;99884.97;5049029;28;46854;-62
2021/11/02 11:27:56;;;;;;;;;0.00;0.00;;;;;13.78;60.15;99880.81;5049918;28;45197;-61
2021/11/02 11:30:27;;;;;;;;;0.00;0.00;;;;;13.82;60.12;99879.56;5052006;28;45241;-61
2021/11/02 11:32:53;;;;;;;;;1.00;1.00;;;;;13.84;60.24;99875.84;5051702;28;45411;-61
2021/11/02 11:35:19;;;;;;;;;0.75;0.00;;;;;13.91;60.47;99873.50;5051834;28;46154;-61
2021/11/02 11:37:51;;;;;;;;;0.00;0.00;;;;;13.98;60.25;99869.31;5051382;28;45348;-59
2021/11/02 11:40:21;;;;;;;;;0.00;0.00;;;;;14.04;59.66;99868.78;5041222;28;45494;-60
2021/11/02 11:42:54;;;;;;;;;0.75;0.00;;;;;14.10;59.08;99870.06;5053456;28;45347;-60
2021/11/02 11:45:29;;;;;;;;;0.00;0.00;;;;;14.10;59.06;99862.13;5051619;28;45419;-60
2021/11/02 11:48:06;;;;;;;;;0.00;0.00;;;;;14.15;59.24;99865.22;5049726;28;45392;-60
2021/11/02 11:50:34;;;;;;;;;0.00;0.00;;;;;14.23;58.69;99862.75;5052494;28;45270;-60
2021/11/02 11:53:02;;;;;;;;;1.00;0.00;;;;;14.20;58.92;99858.53;5036947;28;45704;-60
2021/11/02 11:55:33;;;;;;;;;0.00;0.00;;;;;14.18;58.98;99857.00;5051306;28;46184;-61
2021/11/02 11:58:20;;;;;;;;;2.00;1.00;;;;;14.29;59.02;99851.56;5051544;28;45446;-61
2021/11/02 12:00:49;;;;;;;;;0.00;0.00;;;;;14.32;58.91;99842.53;5052846;28;45374;-60
2021/11/02 12:03:25;;;;;;;;;1.25;1.00;;;;;14.34;58.58;99848.53;5052950;28;45592;-59
2021/11/02 12:06:13;;;;;;;;;3.25;1.00;;;;;14.39;58.33;99854.25;5052266;28;45432;-61
2021/11/02 12:08:50;;;;;;;;;1.00;1.00;;;;;14.40;58.26;99848.00;5053088;28;45476;-60
2021/11/02 12:11:19;;;;;;;;;0.25;0.00;;;;;14.41;58.47;99834.59;5054344;28;45454;-60
2021/11/02 12:13:48;;;;;;;;;1.50;0.75;;;;;14.48;58.79;99838.41;5051777;28;45241;-60
2021/11/02 12:16:24;;;;;;;;;1.75;0.75;;;;;14.52;58.19;99841.59;5051880;28;45488;-61
2021/11/02 12:19:03;;;;;;;;;2.00;1.00;;;;;14.50;58.29;99839.09;5039603;28;45520;-61
2021/11/02 12:21:31;;;;;;;;;3.75;1.00;;;;;14.45;57.99;99835.16;5050847;28;45360;-60
2021/11/02 12:24:07;;;;;;;;;1.00;1.00;;;;;14.36;57.89;99838.63;5050686;28;46402;-61
2021/11/02 12:26:41;;;;;;;;;2.00;1.00;;;;;14.28;58.27;99827.88;5053302;28;45471;-60
2021/11/02 12:29:09;;;;;;;;;1.00;1.00;;;;;14.21;57.92;99825.75;5049616;28;45419;-61
2021/11/02 12:31:36;;;;;;;;;1.00;1.00;;;;;14.20;58.28;99828.56;5051089;28;45482;-61
2021/11/02 12:34:14;;;;;;;;;1.50;1.00;;;;;14.27;58.29;99831.50;5053334;28;45447;-61
2021/11/02 12:36:50;;;;;;;;;0.75;0.00;;;;;14.32;57.93;99824.00;5052733;28;46352;-61
2021/11/02 12:39:19;;;;;;;;;1.00;1.00;;;;;14.30;58.17;99824.13;5051659;28;45214;-61
2021/11/02 12:41:56;;;;;;;;;1.00;1.00;;;;;14.30;58.41;99824.13;5052673;28;45407;-62
2021/11/02 12:44:27;;;;;;;;;1.50;1.50;;;;;14.35;58.70;99829.00;5050157;28;45397;-60
2021/11/02 12:46:53;;;;;;;;;2.75;2.75;;;;;14.40;58.46;99818.84;5050580;28;46128;-60
2021/11/02 12:49:37;;;;;;;;;1.25;1.25;;;;;14.48;58.75;99819.03;5049322;28;45335;-61
2021/11/02 12:52:11;;;;;;;;;1.00;0.50;;;;;14.56;58.36;99820.97;5049479;28;45292;-60
2021/11/02 12:54:38;;;;;;;;;0.00;0.00;;;;;14.61;58.06;99811.63;5048041;28;45357;-60
2021/11/02 12:57:13;;;;;;;;;1.00;0.75;;;;;14.64;57.59;99810.53;5050717;28;45767;-60
2021/11/02 12:59:42;;;;;;;;;1.00;1.00;;;;;14.65;57.80;99807.72;5050053;28;45336;-60
2021/11/02 13:02:17;;;;;;;;;0.00;0.00;;;;;14.69;57.69;99808.25;5050615;28;45298;-61
2021/11/02 13:04:48;;;;;;;;;1.25;0.50;;;;;14.68;57.23;99804.78;5051407;28;45566;-61
2021/11/02 13:07:13;;;;;;;;;0.00;0.00;;;;;14.70;57.37;99800.19;5049989;28;45465;-60
2021/11/02 13:09:39;;;;;;;;;1.25;1.00;;;;;14.71;57.08;99803.69;5049660;28;45839;-61
2021/11/02 13:12:08;;;;;;;;;4.75;1.75;;;;;14.73;57.25;99802.56;5048938;28;45412;-61
2021/11/02 13:14:39;;;;;;;;;1.00;1.00;;;;;14.79;57.30;99801.16;5048617;28;45257;-60
2021/11/02 13:17:07;;;;;;;;;1.00;1.00;;;;;14.77;56.93;99798.66;5050293;28;45715;-61
2021/11/02 13:19:37;;;;;;;;;1.00;0.00;;;;;14.76;56.99;99789.00;5050223;28;45460;-61
2021/11/02 13:22:13;;;;;;;;;0.00;0.00;;;;;14.78;57.03;99788.91;5048526;28;45225;-62
2021/11/02 13:24:42;;;;;;;;;2.00;1.00;;;;;14.78;57.29;99799.50;5048243;28;45501;-61
2021/11/02 13:27:10;;;;;;;;;0.00;0.00;;;;;14.78;56.96;99808.28;5046980;28;46187;-62
2021/11/02 13:29:36;;;;;;;;;2.00;0.50;;;;;14.89;56.75;99812.59;5049516;28;45356;-61
2021/11/02 13:32:08;;;;;;;;;4.00;0.25;;;;;14.90;56.44;99802.81;5051472;28;45326;-61
2021/11/02 13:34:38;;;;;;;;;0.00;0.00;;;;;14.95;56.60;99798.78;5049568;28;45259;-60
2021/11/02 13:37:14;;;;;;;;;0.00;0.00;;;;;15.00;56.11;99803.63;5048321;28;46000;-60
2021/11/02 13:39:59;;;;;;;;;1.00;0.75;;;;;14.95;55.39;99792.63;5048382;28;45414;-59
2021/11/02 13:42:44;;;;;;;;;0.00;0.00;;;;;14.90;55.64;99785.09;5049264;28;45517;-61
2021/11/02 13:45:11;;;;;;;;;1.00;0.00;;;;;14.94;55.75;99778.53;5049452;28;45493;-60
2021/11/02 13:47:37;;;;;;;;;1.25;0.00;;;;;14.92;55.41;99777.81;5049628;28;46204;-60
2021/11/02 13:50:02;;;;;;;;;0.00;0.00;;;;;14.94;55.37;99777.72;5049267;28;45351;-61
2021/11/02 13:52:28;;;;;;;;;0.00;0.00;;;;;14.98;54.90;99779.91;5047905;28;45319;-62
2021/11/02 13:54:54;;;;;;;;;0.00;0.00;;;;;15.01;54.79;99778.81;5049361;28;45591;-62
2021/11/02 13:57:20;;;;;;;;;0.00;0.00;;;;;15.02;55.40;99778.66;5049951;28;46241;-60
2021/11/02 13:59:46;;;;;;;;;0.00;0.00;;;;;15.04;54.77;99775.88;5049444;28;45325;-60
2021/11/02 14:02:12;;;;;;;;;0.00;0.00;;;;;15.05;55.21;99767.75;5051365;28;45313;-60
2021/11/02 14:04:41;;;;;;;;;2.00;0.50;;;;;15.04;55.12;99775.88;5055287;28;45229;-61
2021/11/02 14:07:21;;;;;;;;;1.50;0.00;;;;;15.00;55.54;99774.47;5048736;28;45485;-61
2021/11/02 14:09:59;;;;;;;;;0.00;0.00;;;;;15.01;55.45;99769.03;5047329;28;45245;-60
2021/11/02 14:12:30;;;;;;;;;2.00;0.00;;;;;14.95;55.15;99774.91;5047896;28;45457;-60
2021/11/02 14:15:11;;;;;;;;;0.75;0.00;;;;;14.90;55.66;99776.31;5049191;28;45278;-61
2021/11/02 14:18:08;;;;;;;;;0.00;0.00;;;;;14.87;55.47;99771.28;5048423;28;45403;-60
2021/11/02 14:20:51;;;;;;;;;1.00;0.00;;;;;14.84;55.33;99776.88;5049002;28;45339;-60
2021/11/02 14:23:33;;;;;;;;;0.50;0.00;;;;;14.81;55.15;99762.09;5049828;28;45475;-60
2021/11/02 14:26:21;;;;;;;;;0.00;0.00;;;;;14.81;55.58;99762.09;5048767;28;45509;-61
2021/11/02 14:29:07;;;;;;;;;1.25;1.00;;;;;14.82;55.64;99763.75;5047941;28;46172;-60
2021/11/02 14:31:37;;;;;;;;;0.00;0.00;;;;;14.82;55.50;99762.91;5050180;28;45391;-60
2021/11/02 14:34:29;;;;;;;;;0.25;0.25;;;;;14.83;55.37;99768.06;5049208;28;45389;-62
2021/11/02 14:37:13;;;;;;;;;1.00;1.00;;;;;14.76;55.17;99761.66;5050747;28;45320;-60
2021/11/02 14:39:59;;;;;;;;;0.00;0.00;;;;;14.70;55.12;99767.56;5056255;28;45435;-61
2021/11/02 14:42:46;;;;;;;;;0.00;0.00;;;;;14.61;55.22;99768.38;5040893;28;45257;-60
2021/11/02 14:45:14;;;;;;;;;1.00;0.75;;;;;14.51;55.42;99768.38;5052387;28;45383;-60
2021/11/02 14:47:40;;;;;;;;;1.00;0.00;;;;;14.47;55.83;99761.69;5052373;28;46490;-60
2021/11/02 14:50:37;;;;;;;;;1.75;1.75;;;;;14.43;56.09;99762.91;5051729;28;46242;-61
2021/11/02 14:53:27;;;;;;;;;0.00;0.00;;;;;14.37;56.26;99764.28;5048517;28;45341;-61
2021/11/02 14:55:58;;;;;;;;;0.25;0.00;;;;;14.32;56.25;99768.34;5050869;28;45461;-59
2021/11/02 14:58:40;;;;;;;;;2.00;1.00;;;;;14.27;56.40;99766.13;5053345;28;45415;-61
2021/11/02 15:01:10;;;;;;;;;2.00;0.75;;;;;14.26;57.17;99764.44;5051598;28;46326;-60
2021/11/02 15:03:38;;;;;;;;;1.25;0.75;;;;;14.25;56.99;99774.19;5052193;28;45376;-60
2021/11/02 15:06:12;;;;;;;;;1.00;1.00;;;;;14.24;56.84;99771.69;5049793;28;45321;-61
2021/11/02 15:08:40;;;;;;;;;2.00;1.50;;;;;14.22;57.11;99768.34;5051416;28;45375;-60
2021/11/02 15:11:10;;;;;;;;;1.00;1.00;;;;;14.13;56.76;99767.34;5050685;28;46210;-60
2021/11/02 15:13:45;;;;;;;;;1.00;0.00;;;;;14.05;56.98;99761.91;5052700;28;45412;-61
2021/11/02 15:16:11;;;;;;;;;3.75;1.00;;;;;14.04;57.10;99759.38;5055305;28;45619;-60
2021/11/02 15:18:39;;;;;;;;;2.00;1.00;;;;;14.03;57.64;99760.38;5054011;28;45580;-60
2021/11/02 15:21:05;;;;;;;;;1.00;0.75;;;;;14.00;57.52;99764.13;5053516;28;46164;-60
2021/11/02 15:23:47;;;;;;;;;0.00;0.00;;;;;13.95;57.71;99761.88;5052459;28;45253;-60
2021/11/02 15:26:14;;;;;;;;;2.00;1.00;;;;;13.93;57.94;99758.53;5052255;28;45420;-60
2021/11/02 15:28:43;;;;;;;;;4.00;2.00;;;;;13.93;57.87;99760.34;5055092;28;45524;-61
2021/11/02 15:31:09;;;;;;;;;0.00;0.00;;;;;13.88;56.94;99760.75;5052424;28;45392;-60
2021/11/02 15:33:34;;;;;;;;;1.00;0.00;;;;;13.84;56.88;99754.06;5053568;28;45291;-60
2021/11/02 15:36:29;;;;;;;;;0.00;0.00;;;;;13.82;56.70;99752.50;5051614;28;45366;-59
2021/11/02 15:39:04;;;;;;;;;2.50;0.25;;;;;13.77;56.80;99755.59;5051557;28;45305;-60
2021/11/02 15:41:31;;;;;;;;;0.00;0.00;;;;;13.76;57.33;99761.00;5053612;28;45741;-60
2021/11/02 15:44:06;;;;;;;;;0.00;0.00;;;;;13.75;57.41;99756.69;5055006;28;45427;-60
2021/11/02 15:46:37;;;;;;;;;3.00;1.50;;;;;13.75;57.48;99760.19;5059303;28;45253;-60
2021/11/02 15:49:10;;;;;;;;;1.00;1.00;;;;;13.74;57.46;99752.34;5056018;28;45321;-60
2021/11/02 15:51:39;;;;;;;;;0.00;0.00;;;;;13.69;57.53;99750.97;5051924;28;45340;-61
2021/11/02 15:54:10;;;;;;;;;0.00;0.00;;;;;13.68;57.84;99754.59;5050687;28;45549;-60
2021/11/02 15:56:35;;;;;;;;;0.00;0.00;;;;;13.66;57.59;99745.09;5062282;28;45292;-60
2021/11/02 15:59:04;;;;;;;;;1.25;1.00;;;;;13.63;57.49;99746.19;5062216;28;45277;-60
2021/11/02 16:01:32;;;;;;;;;1.75;1.00;;;;;13.62;57.62;99746.34;5062241;28;45405;-60
2021/11/02 16:04:18;;;;;;;;;1.00;1.00;;;;;13.61;57.80;99752.59;5061867;28;45292;-60
2021/11/02 16:06:55;;;;;;;;;1.25;1.00;;;;;13.60;57.83;99746.47;5061879;28;45418;-60
2021/11/02 16:09:21;;;;;;;;;0.50;0.50;;;;;13.57;57.44;99745.91;5061746;28;45612;-60
2021/11/02 16:11:49;;;;;;;;;0.25;0.00;;;;;13.52;57.89;99750.78;5061614;28;46260;-60
2021/11/02 16:14:19;;;;;;;;;0.00;0.00;;;;;13.47;58.08;99743.22;5062064;28;45351;-60
2021/11/02 16:16:49;;;;;;;;;4.00;0.25;;;;;13.46;58.24;99744.19;5062274;28;45343;-60
2021/11/02 16:19:16;;;;;;;;;1.00;0.75;;;;;13.45;58.70;99742.53;5061871;28;45686;-60
2021/11/02 16:21:41;;;;;;;;;2.00;1.00;;;;;13.44;58.86;99732.91;5061777;28;45254;-60
2021/11/02 16:24:27;;;;;;;;;1.00;0.00;;;;;13.41;58.76;99738.47;5061608;28;45153;-59
2021/11/02 16:26:52;;;;;;;;;2.00;0.75;;;;;13.38;59.05;99736.09;5061742;28;45462;-60
2021/11/02 16:29:19;;;;;;;;;3.25;1.00;;;;;13.37;59.20;99737.06;5061971;28;45445;-60
2021/11/02 16:31:46;;;;;;;;;3.00;1.00;;;;;13.36;59.46;99738.03;5057693;28;45438;-60
2021/11/02 16:34:21;;;;;;;;;1.50;1.50;;;;;13.32;59.78;99731.31;5041602;28;45368;-60
2021/11/02 16:36:46;;;;;;;;;2.00;2.00;;;;;13.32;59.79;99726.88;5044438;28;45482;-60
2021/11/02 16:39:15;;;;;;;;;3.50;2.00;;;;;13.31;60.00;99732.31;5046580;28;45558;-60
2021/11/02 16:41:46;;;;;;;;;1.00;1.00;;;;;13.30;59.85;99733.28;5055105;28;45568;-60
2021/11/02 16:44:16;;;;;;;;;1.75;1.25;;;;;13.29;60.08;99732.44;5048100;28;45380;-59
2021/11/02 16:46:47;;;;;;;;;4.00;2.00;;;;;13.30;60.26;99722.69;5053913;28;45364;-60
2021/11/02 16:49:21;;;;;;;;;3.25;2.00;;;;;13.29;60.50;99724.50;5052400;28;45448;-60
2021/11/02 16:52:01;;;;;;;;;3.00;1.50;;;;;13.28;60.61;99725.47;5046876;28;45597;-60
2021/11/02 16:54:35;;;;;;;;;1.00;1.00;;;;;13.29;60.28;99726.31;5057393;28;45382;-60
2021/11/02 16:57:03;;;;;;;;;0.75;0.00;;;;;13.27;60.32;99720.28;5049837;28;45565;-60
2021/11/02 16:59:50;;;;;;;;;0.75;0.75;;;;;13.26;60.31;99719.47;5050975;28;45301;-60
2021/11/02 17:02:23;;;;;;;;;3.75;1.50;;;;;13.26;60.42;99715.97;5036564;28;46157;-60
2021/11/02 17:05:34;;;;;;;;;1.50;0.50;;;;;13.24;60.46;99713.47;5052539;28;46484;-60
2021/11/02 17:08:02;;;;;;;;;1.00;1.00;;;;;13.24;60.78;99704.72;5009792;28;45951;-60